Palmayachts — CRA6482 — position and weather

sailwx.info

Track history (hours):
 
Tides and Currents Weather Stations Pressure Air Temp Water Temp Dewpoint Dewpoint Depression Visibility Wind Speed Wind Dir Waves Ship Positions

Palmayachts

Last reported at 2018-Feb-25 18:47 UTC. Time now 2018-Feb-25 23:58 UTC.
Position N 38°42' W 009°12'.

Length 11 m.

Type: Sailing vessel. MMSI: 263950950.

Date/timePositionNaut miles runAvg speedWind from/ knotsBaromVisibWave heightAir tempDewpointWater temp
2018-Feb-25 18:47N 38°42' W 009°12'0 0.3
2018-Feb-25 18:30N 38°42' W 009°12'2 4.6
2018-Feb-25 17:59N 38°42' W 009°09'0 0.8
2018-Feb-25 17:30N 38°42' W 009°10'3 5.1
2018-Feb-25 17:00N 38°41' W 009°13'0 0.9
2018-Feb-25 16:29N 38°42' W 009°12'0 0.0
2018-Feb-25 15:05N 38°42' W 009°12'0 0.0
2018-Feb-25 14:59N 38°42' W 009°12'0 0.0
2018-Feb-25 14:29N 38°42' W 009°12'0 0.0
2018-Feb-25 13:59N 38°42' W 009°12'0 0.0
2018-Feb-25 13:20N 38°42' W 009°12'0 0.2
2018-Feb-25 13:00N 38°42' W 009°12'2 3.0
2018-Feb-25 12:30N 38°41' W 009°14'2 4.0
2018-Feb-25 12:00N 38°41' W 009°17'2 4.1
2018-Feb-25 11:29N 38°40' W 009°19'2 4.1
2018-Feb-25 11:00N 38°41' W 009°22'2 4.1
2018-Feb-25 10:30N 38°42' W 009°24'1 0.1
2018-Feb-24 18:45N 38°41' W 009°25'0 0.8
2018-Feb-24 18:23N 38°42' W 009°25'0 0.2
2018-Feb-24 17:47N 38°42' W 009°25'0 0.5
2018-Feb-24 17:18N 38°42' W 009°25'0 0.3
2018-Feb-24 17:00N 38°42' W 009°25'0 0.1
2018-Feb-24 16:24N 38°42' W 009°25'0 0.0
2018-Feb-24 16:00N 38°42' W 009°25'0 0.0
2018-Feb-24 15:29N 38°42' W 009°25'0 0.0
2018-Feb-24 14:58N 38°42' W 009°25'2 3.5
2018-Feb-24 14:30N 38°41' W 009°23'2 4.9
2018-Feb-24 14:00N 38°40' W 009°20'3 6.4
2018-Feb-24 13:28N 38°41' W 009°16'3 2.3
2018-Feb-24 12:07N 38°42' W 009°12'0 1.4
2018-Feb-24 11:59N 38°41' W 009°12'2 4.6
2018-Feb-24 11:27N 38°42' W 009°09'0 0.8
2018-Feb-24 10:58N 38°42' W 009°09'2 3.5
2018-Feb-24 10:30N 38°42' W 009°11'1 1.6
2018-Feb-24 09:59N 38°42' W 009°12'0 0.0
2018-Feb-23 16:02N 38°42' W 009°12'0 0.0
2018-Feb-23 16:00N 38°42' W 009°12'3 4.5
2018-Feb-23 15:23N 38°42' W 009°09'1 1.3
2018-Feb-23 14:57N 38°42' W 009°09'3 5.1
2018-Feb-23 14:24N 38°41' W 009°13'0 0.8
2018-Feb-23 13:50N 38°42' W 009°12'0 0.0
2018-Feb-22 18:41N 38°42' W 009°12'1 3.2
2018-Feb-22 18:30N 38°41' W 009°12'2 4.0
2018-Feb-22 17:57N 38°42' W 009°09'2 2.7
2018-Feb-22 17:22N 38°42' W 009°11'2 4.9
2018-Feb-22 16:59N 38°41' W 009°13'1 0.0
2018-Feb-21 18:48N 38°42' W 009°12'0 1.4
2018-Feb-21 18:29N 38°41' W 009°13'2 4.5
2018-Feb-21 18:00N 38°41' W 009°10'2 3.9
2018-Feb-21 17:31N 38°42' W 009°08'3 0.1
2018-Feb-19 18:32N 38°42' W 009°12'0 1.4
2018-Feb-19 18:30N 38°42' W 009°12'0 0.8
2018-Feb-19 17:59N 38°41' W 009°12'3 5.2
2018-Feb-19 17:22N 38°42' W 009°08'1 2.8
2018-Feb-19 16:59N 38°42' W 009°10'2 0.1
2018-Feb-18 18:38N 38°42' W 009°12'0 1.1
2018-Feb-18 18:26N 38°42' W 009°13'1 2.0
2018-Feb-18 18:00N 38°41' W 009°11'2 5.0
2018-Feb-18 17:30N 38°42' W 009°08'1 2.6
2018-Feb-18 17:00N 38°42' W 009°10'2 0.1
2018-Feb-17 19:21N 38°42' W 009°12'0 0.9
2018-Feb-17 18:58N 38°41' W 009°12'2 4.4
2018-Feb-17 18:29N 38°41' W 009°10'1 2.1
2018-Feb-17 17:59N 38°42' W 009°09'2 4.2
2018-Feb-17 17:29N 38°42' W 009°11'1 1.5
2018-Feb-17 16:59N 38°41' W 009°12'0 0.3
2018-Feb-17 16:28N 38°42' W 009°12'  
Track history (hours):
 
Tides and Currents Weather Stations Pressure Air Temp Water Temp Dewpoint Dewpoint Depression Visibility Wind Speed Wind Dir Waves Ship Positions

Palmayachts

Last reported at 2018-Feb-25 18:47 UTC. Time now 2018-Feb-25 23:58 UTC.
Position N 38°42' W 009°12'.

Length 11 m.

Type: Sailing vessel. MMSI: 263950950.

Date/timePositionNaut miles runAvg speedWind from/ knotsBaromVisibWave heightAir tempDewpointWater temp
2018-Feb-25 18:47N 38°42' W 009°12'0 0.3
2018-Feb-25 18:30N 38°42' W 009°12'2 4.6
2018-Feb-25 17:59N 38°42' W 009°09'0 0.8
2018-Feb-25 17:30N 38°42' W 009°10'3 5.1
2018-Feb-25 17:00N 38°41' W 009°13'0 0.9
2018-Feb-25 16:29N 38°42' W 009°12'0 0.0
2018-Feb-25 15:05N 38°42' W 009°12'0 0.0
2018-Feb-25 14:59N 38°42' W 009°12'0 0.0
2018-Feb-25 14:29N 38°42' W 009°12'0 0.0
2018-Feb-25 13:59N 38°42' W 009°12'0 0.0
2018-Feb-25 13:20N 38°42' W 009°12'0 0.2
2018-Feb-25 13:00N 38°42' W 009°12'2 3.0
2018-Feb-25 12:30N 38°41' W 009°14'2 4.0
2018-Feb-25 12:00N 38°41' W 009°17'2 4.1
2018-Feb-25 11:29N 38°40' W 009°19'2 4.1
2018-Feb-25 11:00N 38°41' W 009°22'2 4.1
2018-Feb-25 10:30N 38°42' W 009°24'1 0.1
2018-Feb-24 18:45N 38°41' W 009°25'0 0.8
2018-Feb-24 18:23N 38°42' W 009°25'0 0.2
2018-Feb-24 17:47N 38°42' W 009°25'0 0.5
2018-Feb-24 17:18N 38°42' W 009°25'0 0.3
2018-Feb-24 17:00N 38°42' W 009°25'0 0.1
2018-Feb-24 16:24N 38°42' W 009°25'0 0.0
2018-Feb-24 16:00N 38°42' W 009°25'0 0.0
2018-Feb-24 15:29N 38°42' W 009°25'0 0.0
2018-Feb-24 14:58N 38°42' W 009°25'2 3.5
2018-Feb-24 14:30N 38°41' W 009°23'2 4.9
2018-Feb-24 14:00N 38°40' W 009°20'3 6.4
2018-Feb-24 13:28N 38°41' W 009°16'3 2.3
2018-Feb-24 12:07N 38°42' W 009°12'0 1.4
2018-Feb-24 11:59N 38°41' W 009°12'2 4.6
2018-Feb-24 11:27N 38°42' W 009°09'0 0.8
2018-Feb-24 10:58N 38°42' W 009°09'2 3.5
2018-Feb-24 10:30N 38°42' W 009°11'1 1.6
2018-Feb-24 09:59N 38°42' W 009°12'0 0.0
2018-Feb-23 16:02N 38°42' W 009°12'0 0.0
2018-Feb-23 16:00N 38°42' W 009°12'3 4.5
2018-Feb-23 15:23N 38°42' W 009°09'1 1.3
2018-Feb-23 14:57N 38°42' W 009°09'3 5.1
2018-Feb-23 14:24N 38°41' W 009°13'0 0.8
2018-Feb-23 13:50N 38°42' W 009°12'0 0.0
2018-Feb-22 18:41N 38°42' W 009°12'1 3.2
2018-Feb-22 18:30N 38°41' W 009°12'2 4.0
2018-Feb-22 17:57N 38°42' W 009°09'2 2.7
2018-Feb-22 17:22N 38°42' W 009°11'2 4.9
2018-Feb-22 16:59N 38°41' W 009°13'1 0.0
2018-Feb-21 18:48N 38°42' W 009°12'0 1.4
2018-Feb-21 18:29N 38°41' W 009°13'2 4.5
2018-Feb-21 18:00N 38°41' W 009°10'2 3.9
2018-Feb-21 17:31N 38°42' W 009°08'3 0.1
2018-Feb-19 18:32N 38°42' W 009°12'0 1.4
2018-Feb-19 18:30N 38°42' W 009°12'0 0.8
2018-Feb-19 17:59N 38°41' W 009°12'3 5.2
2018-Feb-19 17:22N 38°42' W 009°08'1 2.8
2018-Feb-19 16:59N 38°42' W 009°10'2 0.1
2018-Feb-18 18:38N 38°42' W 009°12'0 1.1
2018-Feb-18 18:26N 38°42' W 009°13'1 2.0
2018-Feb-18 18:00N 38°41' W 009°11'2 5.0
2018-Feb-18 17:30N 38°42' W 009°08'1 2.6
2018-Feb-18 17:00N 38°42' W 009°10'2 0.1
2018-Feb-17 19:21N 38°42' W 009°12'0 0.9
2018-Feb-17 18:58N 38°41' W 009°12'2 4.4
2018-Feb-17 18:29N 38°41' W 009°10'1 2.1
2018-Feb-17 17:59N 38°42' W 009°09'2 4.2
2018-Feb-17 17:29N 38°42' W 009°11'1 1.5
2018-Feb-17 16:59N 38°41' W 009°12'0 0.3
2018-Feb-17 16:28N 38°42' W 009°12'  

Dump ship's entire track history